createdAt,value
2022-09-06T00:00:30.802Z,149242.47
2022-09-06T00:05:35.420Z,149215.41
2022-09-06T00:10:40.516Z,149202.47
2022-09-06T00:15:47.223Z,149211.53
2022-09-06T00:20:51.663Z,149188.31
2022-09-06T00:26:04.500Z,149189.59
2022-09-06T00:31:16.570Z,149180.56
2022-09-06T00:36:22.001Z,149178.00
2022-09-06T00:41:26.493Z,149183.19
2022-09-06T00:46:33.674Z,149168.97
2022-09-06T00:51:40.378Z,149156.06
2022-09-06T00:56:46.561Z,149143.19
2022-09-06T01:01:53.001Z,149122.56
2022-09-06T01:07:07.571Z,149110.94
2022-09-06T01:12:26.286Z,149108.38
2022-09-06T01:17:43.680Z,149076.09
2022-09-06T01:23:21.830Z,149077.38
2022-09-06T01:28:46.688Z,149082.53
2022-09-06T01:34:00.439Z,149085.13
2022-09-06T01:39:05.632Z,149072.22
2022-09-06T01:44:11.155Z,149043.88
2022-09-06T01:49:27.539Z,149045.16
2022-09-06T01:54:46.306Z,149015.50
2022-09-06T02:00:06.587Z,148998.78
2022-09-06T02:05:25.660Z,148962.66
2022-09-06T02:10:35.737Z,148997.44
2022-09-06T02:15:46.667Z,148970.41
2022-09-06T02:20:55.458Z,148975.53
2022-09-06T02:26:06.731Z,148944.66
2022-09-06T02:31:18.423Z,148942.03
2022-09-06T02:36:23.330Z,148949.78
2022-09-06T02:41:29.725Z,148948.50
2022-09-06T02:46:35.517Z,148951.06
2022-09-06T02:51:40.936Z,148935.63
2022-09-06T02:56:48.994Z,148902.13
2022-09-06T03:01:58.096Z,148929.16
2022-09-06T03:07:02.686Z,148942.03
2022-09-06T03:12:07.462Z,148918.84
2022-09-06T03:17:13.598Z,148859.59
2022-09-06T03:22:18.538Z,148882.78
2022-09-06T03:27:23.201Z,148895.66
2022-09-06T03:32:29.555Z,148885.34
2022-09-06T03:37:35.047Z,148884.06
2022-09-06T03:42:39.328Z,148832.53
2022-09-06T03:47:45.747Z,148823.50
2022-09-06T03:52:50.929Z,148818.38
2022-09-06T03:57:55.584Z,148824.78
2022-09-06T04:03:02.341Z,148809.34
2022-09-06T04:08:07.450Z,148796.47
2022-09-06T04:13:12.223Z,148792.63
2022-09-06T04:18:19.219Z,148804.22
2022-09-06T04:23:24.785Z,148810.63
2022-09-06T04:28:30.159Z,148784.88
2022-09-06T04:33:38.486Z,148750.13
2022-09-06T04:38:44.086Z,148753.97
2022-09-06T04:43:48.319Z,148752.69
2022-09-06T04:48:56.475Z,148761.72
2022-09-06T04:54:00.992Z,148840.25
2022-09-06T04:59:05.217Z,148908.53
2022-09-06T05:04:11.329Z,148943.31
2022-09-06T05:09:15.765Z,148922.75
2022-09-06T05:14:20.045Z,148957.53
2022-09-06T05:19:25.990Z,149015.50
2022-09-06T05:24:30.240Z,149049.00
2022-09-06T05:29:35.090Z,149089.03
2022-09-06T05:34:41.578Z,149117.41
2022-09-06T05:39:45.953Z,149162.53
2022-09-06T05:44:50.384Z,149197.34
2022-09-06T05:49:57.343Z,149230.88
2022-09-06T05:55:01.865Z,149288.91
2022-09-06T06:00:07.587Z,149359.88
2022-09-06T06:05:18.088Z,149368.91
2022-09-06T06:10:22.529Z,149489.00
2022-09-06T06:15:26.863Z,149576.78
2022-09-06T06:20:32.727Z,149712.34
2022-09-06T06:25:37.443Z,149870.03
2022-09-06T06:30:42.343Z,149963.13
2022-09-06T06:36:03.860Z,150062.69
2022-09-06T06:41:10.100Z,150383.53
2022-09-06T06:46:16.521Z,150365.47
2022-09-06T06:51:24.259Z,150347.31
2022-09-06T06:56:30.286Z,150384.81
2022-09-06T07:01:36.749Z,150365.47
2022-09-06T07:12:19.132Z,150792.81
2022-09-06T07:17:23.569Z,150976.91
2022-09-06T07:22:29.673Z,150966.53
2022-09-06T07:27:50.138Z,150993.75
2022-09-06T07:32:55.570Z,150880.97
2022-09-06T07:38:03.300Z,150786.31
2022-09-06T07:43:07.446Z,150769.50
2022-09-06T07:48:11.739Z,150711.19
2022-09-06T07:53:24.795Z,150686.56
2022-09-06T07:58:37.064Z,150630.88
2022-09-06T08:03:41.925Z,150677.50
2022-09-06T08:09:03.713Z,150743.56
2022-09-06T08:14:10.470Z,150649.03
2022-09-06T08:19:15.304Z,150708.59
2022-09-06T08:24:21.816Z,150974.34
2022-09-06T08:29:27.768Z,151136.47
2022-09-06T08:34:32.271Z,151150.72
2022-09-06T08:39:38.788Z,151303.84
2022-09-06T08:44:56.947Z,151431.06
2022-09-06T08:50:07.203Z,151392.09
2022-09-06T08:55:28.698Z,151484.22
2022-09-06T09:00:35.172Z,151631.03
2022-09-06T09:05:41.698Z,151599.84
2022-09-06T09:10:51.204Z,151580.38
2022-09-06T09:15:55.491Z,151536.22
2022-09-06T09:21:00.810Z,151263.56
2022-09-06T09:26:12.637Z,151202.63
2022-09-06T09:31:35.434Z,151383.00
2022-09-06T09:36:41.464Z,151508.97
2022-09-06T09:41:53.099Z,151662.22
2022-09-06T09:46:57.552Z,151928.63
2022-09-06T09:52:12.318Z,151709.00
2022-09-06T09:57:20.256Z,151755.75
2022-09-06T10:02:28.879Z,151499.88
2022-09-06T10:07:35.333Z,151640.13
2022-09-06T10:12:43.500Z,151618.06
2022-09-06T10:17:51.713Z,151653.09
2022-09-06T10:23:03.396Z,151610.25
2022-09-06T10:28:36.655Z,151536.22
2022-09-06T10:33:53.751Z,151532.34
2022-09-06T10:39:04.070Z,151705.13
2022-09-06T10:44:24.765Z,151953.31
2022-09-06T10:49:30.058Z,151766.16
2022-09-06T10:54:36.924Z,151745.34
2022-09-06T10:59:51.882Z,151829.81
2022-09-06T11:10:32.836Z,151950.72
2022-09-06T11:15:45.459Z,152123.69
2022-09-06T11:21:05.101Z,151966.34
2022-09-06T11:26:17.421Z,151859.72
2022-09-06T11:36:53.817Z,152061.22
2022-09-06T11:41:59.792Z,152022.25
2022-09-06T11:47:08.136Z,152049.53
2022-09-06T11:52:59.551Z,152292.88
2022-09-06T11:58:07.633Z,152304.56
2022-09-06T12:04:06.788Z,151922.16
2022-09-06T12:09:35.747Z,152225.13
2022-09-06T12:14:41.726Z,152462.06
2022-09-06T12:19:52.096Z,152415.16
2022-09-06T12:25:00.158Z,152404.75
2022-09-06T12:30:08.330Z,152277.22
2022-09-06T12:40:49.494Z,152416.47
2022-09-06T12:45:54.623Z,152399.53
2022-09-06T12:51:05.650Z,152273.34
2022-09-06T12:56:13.507Z,152249.88
2022-09-06T13:01:24.206Z,152046.94
2022-09-06T13:06:37.366Z,152082.03
2022-09-06T13:11:46.876Z,152235.53
2022-09-06T13:16:53.721Z,152342.28
2022-09-06T13:22:02.931Z,152437.28
2022-09-06T13:27:28.779Z,152337.09
2022-09-06T13:32:33.921Z,152260.28
2022-09-06T13:37:42.349Z,152330.56
2022-09-06T13:42:46.850Z,152273.34
2022-09-06T13:47:59.918Z,152475.06
2022-09-06T13:53:22.969Z,152654.78
2022-09-06T13:58:30.314Z,152299.34
2022-09-06T14:03:36.689Z,152235.53
2022-09-06T14:09:05.669Z,152141.91
2022-09-06T14:14:10.116Z,151963.72
2022-09-06T14:19:14.839Z,152044.34
2022-09-06T14:24:20.951Z,152251.19
2022-09-06T14:29:25.581Z,152497.19
2022-09-06T14:34:30.088Z,152515.41
2022-09-06T14:39:36.262Z,152348.81
2022-09-06T14:44:41.475Z,152314.97
2022-09-06T14:49:46.188Z,152426.88
2022-09-06T14:54:52.468Z,152663.88
2022-09-06T14:59:57.067Z,152325.38
2022-09-06T15:05:01.520Z,151876.59
2022-09-06T15:10:09.730Z,151727.22
2022-09-06T15:15:14.382Z,151723.28
2022-09-06T15:20:19.125Z,151654.41
2022-09-06T15:25:25.516Z,151641.41
2022-09-06T15:30:30.203Z,151709.00
2022-09-06T15:35:34.785Z,151681.69
2022-09-06T15:40:40.967Z,151695.97
2022-09-06T15:45:49.710Z,151646.59
2022-09-06T15:50:54.727Z,151577.78
2022-09-06T15:56:03.086Z,151460.88
2022-09-06T16:01:10.789Z,151445.31
2022-09-06T16:06:25.350Z,151433.63
2022-09-06T16:11:36.031Z,151277.81
2022-09-06T16:16:42.003Z,151257.09
2022-09-06T16:21:46.739Z,151188.31
2022-09-06T16:26:52.790Z,151154.59
2022-09-06T16:32:00.078Z,151128.69
2022-09-06T16:37:08.163Z,151045.63
2022-09-06T16:42:15.132Z,151009.31
2022-09-06T16:47:19.908Z,150996.38
2022-09-06T16:52:24.571Z,150966.53
2022-09-06T16:57:31.054Z,150883.56
2022-09-06T17:02:35.821Z,150880.97
2022-09-06T17:07:40.382Z,150795.41
2022-09-06T17:12:46.912Z,150756.56
2022-09-06T17:17:51.587Z,150698.22
2022-09-06T17:22:56.014Z,150696.94
2022-09-06T17:28:02.484Z,150671.06
2022-09-06T17:33:07.151Z,150646.41
2022-09-06T17:38:12.385Z,150625.72
2022-09-06T17:43:18.632Z,150615.38
2022-09-06T17:48:23.113Z,150564.78
2022-09-06T17:53:28.119Z,150498.75
2022-09-06T17:58:34.990Z,150452.19
2022-09-06T18:03:42.354Z,150374.47
2022-09-06T18:08:47.157Z,150368.03
2022-09-06T18:13:59.867Z,150366.75
2022-09-06T18:19:06.289Z,150333.09
2022-09-06T18:24:14.026Z,150325.28
2022-09-06T18:29:21.026Z,150299.41
2022-09-06T18:34:25.700Z,150339.53
2022-09-06T18:39:30.508Z,150219.16
2022-09-06T18:44:36.641Z,150228.22
2022-09-06T18:49:44.166Z,150201.03
2022-09-06T18:54:49.938Z,150172.63
2022-09-06T18:59:56.454Z,150171.34
2022-09-06T19:05:00.855Z,150119.59
2022-09-06T19:10:06.308Z,150096.31
2022-09-06T19:15:13.806Z,150091.13
2022-09-06T19:20:18.497Z,150040.69
2022-09-06T19:25:23.267Z,150026.41
2022-09-06T19:30:29.818Z,149981.19
2022-09-06T19:35:47.092Z,149987.66
2022-09-06T19:41:05.489Z,149952.78
2022-09-06T19:46:13.255Z,149947.56
2022-09-06T19:51:20.639Z,149945.00
2022-09-06T19:56:28.305Z,149911.41
2022-09-06T20:01:37.260Z,149851.94
2022-09-06T20:06:41.920Z,149855.84
2022-09-06T20:11:46.751Z,149823.53
2022-09-06T20:16:53.162Z,149809.28
2022-09-06T20:22:00.713Z,149801.56
2022-09-06T20:27:06.179Z,149769.28
2022-09-06T20:32:14.853Z,149762.78
2022-09-06T20:37:18.999Z,149716.25
2022-09-06T20:42:23.645Z,149727.88
2022-09-06T20:47:30.196Z,149685.25
2022-09-06T20:52:35.331Z,149642.63
2022-09-06T20:57:40.112Z,149647.75
2022-09-06T21:02:46.699Z,149625.81
2022-09-06T21:07:51.768Z,149600.00
2022-09-06T21:12:56.229Z,149576.78
2022-09-06T21:18:03.496Z,149598.72
2022-09-06T21:23:08.395Z,149623.25
2022-09-06T21:28:12.967Z,149636.16
2022-09-06T21:33:18.844Z,149672.34
2022-09-06T21:38:23.562Z,149676.19
2022-09-06T21:43:28.496Z,149655.53
2022-09-06T21:48:38.548Z,149588.38
2022-09-06T21:53:44.502Z,149579.34
2022-09-06T21:58:52.376Z,149593.53
2022-09-06T22:03:58.878Z,149552.25
2022-09-06T22:09:05.425Z,149504.47
2022-09-06T22:14:12.752Z,149496.75
2022-09-06T22:19:18.944Z,149507.09
2022-09-06T22:24:23.640Z,149499.31
2022-09-06T22:29:28.753Z,149512.22
2022-09-06T22:34:34.855Z,149481.22
2022-09-06T22:39:39.527Z,149447.69
2022-09-06T22:44:44.367Z,149478.66
2022-09-06T22:49:50.385Z,149450.25
2022-09-06T22:54:55.017Z,149445.09
2022-09-06T23:00:00.362Z,149445.09
2022-09-06T23:05:07.782Z,149394.72
2022-09-06T23:10:12.454Z,149410.22
2022-09-06T23:15:17.072Z,149419.22
2022-09-06T23:20:22.849Z,149463.16
2022-09-06T23:25:27.341Z,149486.41
2022-09-06T23:30:32.205Z,149491.56
2022-09-06T23:35:39.788Z,149432.16
2022-09-06T23:40:44.220Z,149452.88
2022-09-06T23:45:48.756Z,149452.88
2022-09-06T23:50:55.371Z,149426.97
2022-09-06T23:56:00.520Z,149405.03
